Nearby METAR Reports

 

KSNK - Snyder/Winston, Texas, USA
Distance from station: SSE 25mi, 41km
Updated: Sat, 02-Mar-2024 5:55am CST
Clear
Clear
 Wind from SSW
Wind: SSW 9 mph , 15 km/h
Temperature: 46°F , 8°C
Wind Chill: 41°F , 5°C
Dew Point: 32°F , 0°C
Humidity: 57%
Barometer: 29.97 inHg , 1014.9 hPa
Clouds: Clear
Visibility: 10 miles , 16 km
2024/03/02 11:55 KSNK 021155Z AUTO 21008KT 10SM CLR 08/00 A2997 RMK AO2 T00750004
KSWW - Sweetwater, Texas, USA
Distance from station: SE 56mi, 90km
Updated: Sat, 02-Mar-2024 5:55am CST

 Wind from SSW
Wind: SSW 12 mph , 19 km/h
Temperature: 54°F , 12°C
Dew Point: 34°F , 1°C
Humidity: 47%
Barometer: 29.99 inHg , 1015.6 hPa
Visibility: 10 miles , 16 km
2024/03/02 11:55 KSWW 021155Z AUTO 21010KT 10SM 12/01 A2999 RMK AO2 T01180009 10160 20118
 
KLBB - Lubbock, Texas, USA
Distance from station: NW 59mi, 94km
Updated: Sat, 02-Mar-2024 5:53am CST
Clear
Clear
 Wind from W
Wind: W 8 mph , 13 km/h
Temperature: 37°F , 3°C
Wind Chill: 31°F , -1°C
Dew Point: 27°F , -3°C
Humidity: 65%
Barometer: 29.94 inHg , 1013.9 hPa
Clouds: Clear
Visibility: 10 miles , 16 km
2024/03/02 11:53 KLBB 021153Z 27007KT 10SM CLR 03/M03 A2994 RMK AO2 SLP114 T00281028 10133 20028 55004
KPVW - Plainview, Texas, USA
Distance from station: NNW 85mi, 137km
Updated: Sat, 02-Mar-2024 5:55am CST
Clear
Clear
 Wind from W
Wind: W 6 mph , 9 km/h
Temperature: 32°F , 0°C
Wind Chill: 26°F , -3°C
Dew Point: 25°F , -4°C
Humidity: 75%
Barometer: 29.93 inHg , 1013.5 hPa
Clouds: Clear
Visibility: 10 miles , 16 km
2024/03/02 11:55 KPVW 021155Z AUTO 28005KT 10SM CLR 00/M04 A2993 RMK AO2 T00001038 10074 20000
 
KDYS - Dyess Afb/Abilen, Texas, USA
Distance from station: ESE 88mi, 141km
Updated: Sat, 02-Mar-2024 5:55am CST
Clear
Clear
 Wind from S
Wind: S 8 mph , 13 km/h
Temperature: 55°F , 13°C
Dew Point: 37°F , 3°C
Humidity: 51%
Barometer: 29.93 inHg , 1013.5 hPa
Clouds: Clear
Visibility: 10 miles , 16 km
2024/03/02 11:55 KDYS 021155Z AUTO 19007KT 10SM CLR 13/03 A2993 RMK AO2 SLP108 T01250026 10150 20102 55002
KGNC - Seminole, Texas, USA
Distance from station: WSW 89mi, 144km
Updated: Sat, 02-Mar-2024 5:55am CST
Clear
Clear
 Wind from WSW
Wind: WSW 9 mph , 15 km/h
Temperature: 45°F , 7°C
Wind Chill: 40°F , 4°C
Dew Point: 30°F , -1°C
Humidity: 57%
Barometer: 30.04 inHg , 1017.3 hPa
Clouds: Clear
Visibility: 10 miles , 16 km
2024/03/02 11:55 KGNC 021155Z AUTO 24008KT 10SM CLR 07/M01 A3004 RMK AO2 T00651006 10112 20062
 
KE11 - Andrews, Texas, USA
Distance from station: WSW 93mi, 149km
Updated: Sat, 02-Mar-2024 5:55am CST
Clear
Clear
 Wind from W
Wind: W 13 mph , 20 km/h
Temperature: 54°F , 12°C
Dew Point: 30°F , -1°C
Humidity: 41%
Barometer: 30.00 inHg , 1015.9 hPa
Clouds: Clear
Visibility: 10 miles , 16 km
2024/03/02 11:55 KE11 021155Z AUTO 26011KT 10SM CLR 12/M01 A3000 RMK AO2 T01151010 10135 20093
KABI - Abilene, Texas, USA
Distance from station: ESE 96mi, 154km
Updated: Sat, 02-Mar-2024 5:52am CST
Clear
Clear
 Wind from SSW
Wind: SSW 14 mph , 22 km/h, Gust: 25 mph , 41 km/h
Temperature: 57°F , 14°C
Dew Point: 37°F , 3°C
Humidity: 48%
Barometer: 29.96 inHg , 1014.6 hPa
Clouds: Clear
Visibility: 10 miles , 16 km
2024/03/02 11:52 KABI 021152Z AUTO 21012G22KT 10SM CLR 14/03 A2996 RMK AO2 SLP129 T01390028 10150 20122 55003
 
KMAF - Midland, Texas, USA
Distance from station: SW 96mi, 154km
Updated: Sat, 02-Mar-2024 5:53am CST
Clear
Clear
 Wind from SW
Wind: SW 8 mph , 13 km/h
Temperature: 48°F , 9°C
Wind Chill: 44°F , 7°C
Dew Point: 36°F , 2°C
Humidity: 62%
Barometer: 30.01 inHg , 1016.3 hPa
Clouds: Clear
Visibility: 10 miles , 16 km
2024/03/02 11:53 KMAF 021153Z 22007KT 10SM CLR 09/02 A3001 RMK AO2 SLP132 T00940017 10133 20089 55002
KCDS - Childress, Texas, USA
Distance from station: NNE 110mi, 177km
Updated: Sat, 02-Mar-2024 5:53am CST
Clear
Clear
 Wind from SW
Wind: SW 8 mph , 13 km/h
Temperature: 43°F , 6°C
Wind Chill: 38°F , 3°C
Dew Point: 30°F , -1°C
Humidity: 61%
Barometer: 29.88 inHg , 1011.9 hPa
Clouds: Clear
Visibility: 10 miles , 16 km
2024/03/02 11:53 KCDS 021153Z AUTO 23007KT 10SM CLR 06/M01 A2988 RMK AO2 SLP107 T00611011 10111 20061 55003
 
KSJT - San Angelo, Texas, USA
Distance from station: SSE 121mi, 194km
Updated: Sat, 02-Mar-2024 5:51am CST
Clear
Clear
 Wind from W
Wind: W 7 mph , 11 km/h
Temperature: 45°F , 7°C
Wind Chill: 41°F , 5°C
Dew Point: 37°F , 3°C
Humidity: 76%
Barometer: 30.01 inHg , 1016.3 hPa
Clouds: Clear
Visibility: 10 miles , 16 km
2024/03/02 11:51 KSJT 021151Z AUTO 28006KT 10SM CLR 07/03 A3001 RMK AO2 SLP152 T00670028 10122 20061 55000
KHOB - Hobbs/Lea Co., New Mexico, USA
Distance from station: WSW 122mi, 196km
Updated: Sat, 02-Mar-2024 5:55am CST
Clear
Clear
 Wind from calm
Wind: Calm
Temperature: 41°F , 5°C
Dew Point: 27°F , -3°C
Humidity: 57%
Barometer: 30.00 inHg , 1015.9 hPa
Clouds: Clear
Visibility: 10 miles , 16 km
2024/03/02 11:55 KHOB 021155Z AUTO 00000KT 10SM CLR 05/M03 A3000 RMK AO2
 
KCOM - Coleman Muni, Texas, USA
Distance from station: SE 131mi, 212km
Updated: Sat, 02-Mar-2024 5:55am CST
Clear
Clear
 Wind from calm
Wind: Calm
Temperature: 45°F , 7°C
Dew Point: 34°F , 1°C
Humidity: 66%
Barometer: 30.00 inHg , 1015.9 hPa
Clouds: Clear
Visibility: 10 miles , 16 km
2024/03/02 11:55 KCOM 021155Z AUTO 00000KT 10SM CLR 07/01 A3000 RMK AO2 T00710014 10125 20067
KBKD - Breckenridge, Texas, USA
Distance from station: E 134mi, 215km
Updated: Sat, 02-Mar-2024 5:55am CST
Clear
Clear
 
Temperature: 57°F , 14°C
Dew Point: 39°F , 4°C
Humidity: 51%
Barometer: 29.94 inHg , 1013.9 hPa
Clouds: Clear
Visibility: 10 miles , 16 km
2024/03/02 11:55 KBKD 021155Z AUTO 10SM CLR 14/04 A2994 RMK AO2 T01350040 10163 20133
 
KF05 - Vernon Wilbarger, Texas, USA
Distance from station: NE 137mi, 220km
Updated: Sat, 02-Mar-2024 5:55am CST
Clear
Clear
 Wind from S
Wind: S 8 mph , 13 km/h
Temperature: 43°F , 6°C
Wind Chill: 38°F , 3°C
Dew Point: 37°F , 3°C
Humidity: 81%
Barometer: 29.88 inHg , 1011.9 hPa
Clouds: Clear
Visibility: 10 miles , 16 km
2024/03/02 11:55 KF05 021155Z AUTO 17007KT 10SM CLR 06/03 A2988 RMK AO2 T00580034 10111 20055